Flight Track Log - Related Links

Times and Time Zones

All times are in EDT time to prevent confusion due to time zone crossing. See the UAL532 flight status page for this flight to view local times or setup timezone preferences in your user account.

Time Position Orientation Groundspeed Altitude Reporting Facility
EDT Latitude Longitude Course Direction KTS MPH feet Rate Location/Type
Sun 08:05:25 AM 39.8833 -104.5667 72° East 201 231 6,900  Level Denver TRACON
Sun 08:06:25 AM 39.8667 -104.4833 105° East 264 304 8,600 1,795 Climbing Denver TRACON
Sun 08:07:00 AM 39.8667 -104.2188 90° East  Level FlightAware
Sun 08:07:22 AM 39.8769 -104.3844 82° East 280 322 10,400  Level Denver Center
Sun 08:08:00 AM 39.8667 -104.0691 90° East  Level FlightAware
Sun 08:08:22 AM 39.8783 -104.2603 89° East 339 390 11,500  Level Denver Center
Sun 08:09:00 AM 39.8667 -103.9194 90° East  Level FlightAware
Sun 08:09:22 AM 39.8794 -104.1178 89° East 402 463 13,100  Level Denver Center
Sun 08:10:00 AM 39.8739 -103.7712 72° East  Level FlightAware
Sun 08:10:23 AM 39.8808 -103.9711 89° East 408 470 15,300  Level Denver Center
Sun 08:11:23 AM 39.8831 -103.8053 89° East 429 494 17,200 1,700 Climbing Denver Center
Sun 08:12:23 AM 39.8903 -103.6622 86° East 422 486 18,700 1,537 Climbing Denver Center
Sun 08:13:24 AM 39.9103 -103.4997 81° East 449 517 20,300 1,636 Climbing Denver Center
Sun 08:14:24 AM 39.9294 -103.3339 81° East 463 533 22,000 1,500 Climbing Denver Center
Sun 08:15:24 AM 39.9481 -103.1639 82° East 473 544 23,300 1,240 Climbing Denver Center
Sun 08:16:25 AM 39.9675 -102.9903 82° East 484 557 24,500 1,140 Climbing Denver Center
Sun 08:17:25 AM 39.9869 -102.8108 82° East 498 573 25,600 1,000 Climbing Denver Center
Sun 08:18:25 AM 40.0064 -102.6286 82° East 506 582 26,500 1,091 Climbing Denver Center
Sun 08:19:26 AM 40.0281 -102.4217 82° East 516 594 27,800 1,190 Climbing Denver Center
Sun 08:20:26 AM 40.0461 -102.2442 82° East 517 595 28,900 1,100 Climbing Denver Center
Sun 08:21:26 AM 40.0647 -102.0642 82° East 523 602 30,000 1,140 Climbing Denver Center
Sun 08:22:27 AM 40.0822 -101.8844 83° East 523 602 31,200 1,240 Climbing Denver Center
Sun 08:23:27 AM 40.1033 -101.6742 82° East 525 604 32,500 893 Climbing Denver Center
Sun 08:24:28 AM 40.1208 -101.4925 83° East 528 608 33,000 248 Climbing Denver Center
Sun 08:25:28 AM 40.1381 -101.3078 83° East 534 615 33,000  Level Denver Center
Sun 08:26:29 AM 40.1581 -101.0922 83° East 537 618 33,000  Level Denver Center
Sun 08:27:29 AM 40.1753 -100.9086 83° East 536 617 33,000  Level Denver Center
Sun 08:28:30 AM 40.1919 -100.7253 83° East 535 616 33,000  Level Denver Center
Sun 08:29:30 AM 40.2194 -100.5111 80° East 538 619 33,000  Level Denver Center
Sun 08:30:31 AM 40.2575 -100.3317 74° East 538 619 33,000  Level Denver Center
Sun 08:31:31 AM 40.2936 -100.1517 75° East 538 619 33,000  Level Denver Center
Sun 08:32:32 AM 40.3358 -99.9406 75° East 539 620 33,000  Level Denver Center
Sun 08:33:32 AM 40.3706 -99.7650 75° East 535 616 33,000  Level Denver Center
Sun 08:34:23 AM 40.4008 -99.6164 75° East 536 617 33,000  Level Minneapolis Center
Sun 08:35:24 AM 40.4367 -99.4297 76° East 534 615 33,000  Level Minneapolis Center
Sun 08:36:25 AM 40.4808 -99.2039 76° East 533 613 33,000  Level Minneapolis Center
Sun 08:37:27 AM 40.5167 -99.0156 76° East 534 615 33,000  Level Minneapolis Center
Sun 08:38:28 AM 40.5511 -98.8278 76° East 533 613 33,000  Level Minneapolis Center
Sun 08:39:29 AM 40.5861 -98.6408 76° East 531 611 33,000  Level Minneapolis Center
Sun 08:40:30 AM 40.6203 -98.4525 77° East 532 612 33,000  Level Minneapolis Center
Sun 08:41:31 AM 40.6561 -98.2631 76° East 535 616 33,000  Level Minneapolis Center
Sun 08:42:32 AM 40.6897 -98.0739 77° East 535 616 33,000  Level Minneapolis Center
Sun 08:43:33 AM 40.7250 -97.8817 76° East 540 621 33,000  Level Minneapolis Center
Sun 08:44:34 AM 40.7592 -97.6883 77° East 542 624 33,000  Level Minneapolis Center
Sun 08:45:35 AM 40.7919 -97.4947 77° East 544 626 33,000  Level Minneapolis Center
Sun 08:46:36 AM 40.8286 -97.2922 76° East 543 625 33,000  Level Minneapolis Center
Sun 08:47:37 AM 40.8619 -97.0989 77° East 542 624 33,000 639 Level Minneapolis Center
Sun 08:48:38 AM 40.8953 -96.9108 77° East 531 611 34,300 984 Climbing Minneapolis Center
Sun 08:49:39 AM 40.9269 -96.6878 79° East 520 598 35,000 344 Climbing Minneapolis Center
Sun 08:50:40 AM 40.9378 -96.4953 86° East 526 605 35,000  Level Minneapolis Center
Sun 08:51:41 AM 40.9503 -96.3028 85° East 528 608 35,000  Level Minneapolis Center
Sun 08:52:42 AM 40.9617 -96.1122 85° East 527 606 35,000  Level Minneapolis Center
Sun 08:53:43 AM 40.9722 -95.9222 86° East 525 604 35,000  Level Minneapolis Center
Sun 08:54:44 AM 40.9833 -95.7319 86° East 525 604 35,000  Level Minneapolis Center
Sun 08:55:45 AM 40.9936 -95.5392 86° East 527 606 35,000  Level Minneapolis Center
Sun 08:56:46 AM 41.0047 -95.3481 86° East 526 605 35,000  Level Minneapolis Center
Sun 08:57:47 AM 41.0142 -95.1586 86° East 522 601 35,000  Level Minneapolis Center
Sun 08:58:48 AM 41.0253 -94.9311 86° East 520 598 35,000  Level Minneapolis Center
Sun 08:59:49 AM 41.0344 -94.7414 86° East 518 596 35,000  Level Minneapolis Center
Sun 09:00:52 AM 41.0419 -94.5603 87° East 519 597 35,000  Level Minneapolis Center
Sun 09:01:53 AM 41.0500 -94.3697 87° East 522 601 35,000  Level Minneapolis Center
Sun 09:02:54 AM 41.0581 -94.1797 87° East 522 601 35,000 49 Level Minneapolis Center
Sun 09:03:55 AM 41.0653 -93.9875 87° East 524 603 35,100 492 Climbing Minneapolis Center
Sun 09:04:56 AM 41.0728 -93.7972 87° East 522 601 36,000 934 Climbing Minneapolis Center
Sun 09:05:57 AM 41.0825 -93.5672 87° East 523 602 37,000 492 Climbing Minneapolis Center
Sun 09:06:58 AM 41.0903 -93.3775 87° East 520 598 37,000  Level Minneapolis Center
Sun 09:07:59 AM 41.0956 -93.1850 88° East 524 603 37,000  Level Minneapolis Center
Sun 09:08:35 AM 41.1006 -93.0669 87° East 524 603 37,000  Level Chicago Center
Sun 09:09:37 AM 41.1067 -92.8725 88° East 528 608 37,000  Level Chicago Center
Sun 09:10:38 AM 41.1125 -92.6781 88° East 530 610 37,000  Level Chicago Center
Sun 09:11:40 AM 41.1178 -92.4839 88° East 530 610 37,000  Level Chicago Center
Sun 09:12:41 AM 41.1225 -92.2908 88° East 528 608 37,000  Level Chicago Center
Sun 09:13:43 AM 41.1275 -92.0961 88° East 530 610 37,000  Level Chicago Center
Sun 09:14:44 AM 41.1331 -91.8614 88° East 531 611 37,000  Level Chicago Center
Sun 09:15:46 AM 41.1369 -91.6669 88° East 531 611 37,000 -244 Level Chicago Center
Sun 09:16:47 AM 41.1400 -91.4992 89° East 531 611 36,500 -780 Descending Chicago Center
Sun 09:17:49 AM 41.1453 -91.2636 88° East 532 612 35,400 -1,016 Descending Chicago Center
Sun 09:18:51 AM 41.1475 -91.0714 89° East 524 603 34,400 -976 Descending Chicago Center
Sun 09:19:52 AM 41.1492 -90.8836 89° East 511 588 33,400 -732 Descending Chicago Center
Sun 09:20:54 AM 41.1517 -90.6908 89° East 519 597 32,900 -1,707 Descending Chicago Center
Sun 09:21:55 AM 41.1544 -90.4944 89° East 530 610 29,900 -2,488 Descending Chicago Center
Sun 09:22:57 AM 41.1567 -90.3011 89° East 523 602 27,800 -2,468 Descending Chicago Center
Sun 09:23:59 AM 41.1881 -90.1197 77° East 507 583 24,800 -1,854 Descending Chicago Center
Sun 09:25:00 AM 41.2292 -89.9442 73° East 498 573 24,000 -390 Descending Chicago Center
Sun 09:26:02 AM 41.2728 -89.7586 73° East 516 594 24,000 -484 Level Chicago Center
Sun 09:27:04 AM 41.3161 -89.5714 73° East 526 605 23,000 -1,854 Descending Chicago Center
Sun 09:28:05 AM 41.3653 -89.3606 73° East 504 580 20,200 -2,488 Descending Chicago Center
Sun 09:29:07 AM 41.4025 -89.1981 73° East 462 532 17,900 -2,195 Descending Chicago Center
Sun 09:30:08 AM 41.4358 -89.0467 74° East 443 510 15,700 -2,244 Descending Chicago Center
Sun 09:31:10 AM 41.4700 -88.8947 73° East 430 495 13,300 -2,226 Descending Chicago Center
Sun 09:32:12 AM 41.5025 -88.7492 73° East 413 475 11,100 -1,113 Descending Chicago Center
Sun 09:33:14 AM 41.5472 -88.6175 66° East 389 448 11,000 -49 Descending Chicago Center
Sun 09:34:15 AM 41.6083 -88.4689 61° Northeast 380 437 11,000  Level Chicago Center
Sun 09:35:17 AM 41.6731 -88.3567 52° Northeast 378 435 11,000 -435 Level Chicago Center
Sun 09:36:19 AM 41.7381 -88.2447 52° Northeast 379 436 10,100 -488 Descending Chicago Center
Sun 09:37:20 AM 41.8025 -88.1350 52° Northeast 374 430 10,000 -98 Descending Chicago Center
Sun 09:38:22 AM 41.8608 -88.0297 53° Northeast 351 404 9,900 -865 Descending Chicago Center
Sun 09:39:11 AM 41.8833 -87.9333 73° East 323 372 8,400 -1,631 Descending Chicago TRACON
Sun 09:40:05 AM 41.8833 -87.8333 90° East 308 354 7,100 -1,280 Descending Chicago TRACON
Sun 09:40:26 AM 41.8831 -87.8058 91° East 314 361 6,800 -1,244 Descending Chicago Center
Sun 09:41:27 AM 41.8828 -87.6933 90° East 306 352 5,400 -878 Descending Chicago Center
Sun 09:42:29 AM 41.8833 -87.5581 90° East 303 349 5,000 -194 Descending Chicago Center
Sun 09:43:31 AM 41.8836 -87.4472 90° East 301 346 5,000  Level Chicago Center
Sun 09:44:33 AM 41.9114 -87.3742 63° Northeast 248 285 5,000 -49 Level Chicago Center
Sun 09:45:34 AM 41.9544 -87.4128 326° Northwest 209 241 4,900  Descending Chicago Center
Sun 09:46:36 AM 41.9681 -87.4894 283° West 214 246 5,000 48 Climbing Chicago Center
Sun 09:47:38 AM 41.9681 -87.5678 270° West 214 246 5,000  Level Chicago Center

Login

Don't have an account? Register now (free) for customized features, flight alerts, and more!